Cemaes Bay, United Kingdom
Current Conditions -  °F | °C
As of 10:50 PM on Friday 19 Dec 2014 (Local Time) from EGOV Reporting Station
Broken Clouds Broken Clouds  
Wind Chill:   Ceiling: 4500
Heat Index:   Visibility: 6mi
Dew Point:   Wind: 22mph
Humidity: 71%   Direction: 240°WSW
Pressure: 30.15"   Gusts: NA
Location:  53.41°N, 4.46°W
Report Text: EGOV 192250Z AUTO 24019KT 9999 FEW025/// BKN045/// 09/04 Q1021
Loading
Personal Weather Stations






























Interactive Weather Map New forecast layout! Learn more

10-Day Weather Forecast

Advertisements
Track Severe Weather on mobile